Time;durP1;ratioP1;P1;durP2;ratioP2;P2;SDS_P1;SDS_P2;PMS_P1;PMS_P2;Temp;Humidity;BMP_temperature;BMP_pressure;BME280_temperature;BME280_humidity;BME280_pressure;Samples;Min_cycle;Max_cycle;Signal;HPM_P1;HPM_P2
2023/03/01 00:00:15;;;;;;;103.30;59.35;;;1.20;99.90;;;;;;5055504;28;20037;-60
2023/03/01 00:02:41;;;;;;;78.50;46.35;;;1.10;99.90;;;;;;5055537;28;20163;-60
2023/03/01 00:05:07;;;;;;;39.53;26.73;;;1.00;99.90;;;;;;5055506;28;20029;-60
2023/03/01 00:07:33;;;;;;;38.17;26.45;;;1.00;99.90;;;;;;5055190;28;20128;-60
2023/03/01 00:09:58;;;;;;;48.28;27.13;;;1.00;99.90;;;;;;5055505;28;20063;-60
2023/03/01 00:12:24;;;;;;;44.30;26.27;;;1.00;99.90;;;;;;5055226;28;20082;-60
2023/03/01 00:14:50;;;;;;;70.03;38.30;;;0.90;99.90;;;;;;5055479;28;20036;-60
2023/03/01 00:17:16;;;;;;;145.77;69.38;;;1.00;99.90;;;;;;5055325;28;20428;-60
2023/03/01 00:19:42;;;;;;;80.43;50.38;;;1.00;99.90;;;;;;5055117;28;20390;-60
2023/03/01 00:22:08;;;;;;;57.05;39.22;;;0.90;99.90;;;;;;5055166;28;20028;-60
2023/03/01 00:24:35;;;;;;;40.55;28.73;;;0.80;99.90;;;;;;5055113;28;20049;-60
2023/03/01 00:27:00;;;;;;;38.45;24.42;;;0.80;99.90;;;;;;5053686;28;20019;-60
2023/03/01 00:29:26;;;;;;;35.90;22.38;;;0.90;99.90;;;;;;5054682;28;20044;-60
2023/03/01 00:31:52;;;;;;;43.55;24.83;;;1.00;99.90;;;;;;5054921;28;20031;-60
2023/03/01 00:34:18;;;;;;;46.15;27.55;;;0.90;99.90;;;;;;5055436;28;20124;-60
2023/03/01 00:36:43;;;;;;;58.25;31.90;;;0.90;99.90;;;;;;5054868;28;20067;-60
2023/03/01 00:39:14;;;;;;;42.17;24.60;;;0.80;99.90;;;;;;5054836;28;20041;-60
2023/03/01 00:41:40;;;;;;;51.40;28.70;;;0.80;99.90;;;;;;5054907;28;20024;-60
2023/03/01 00:44:06;;;;;;;51.28;34.72;;;0.90;99.90;;;;;;5054651;28;20044;-60
2023/03/01 00:46:33;;;;;;;53.50;31.40;;;0.90;99.90;;;;;;5054808;28;20029;-60
2023/03/01 00:49:01;;;;;;;48.25;27.40;;;0.90;99.90;;;;;;5054593;28;20455;-59
2023/03/01 00:51:28;;;;;;;55.45;30.05;;;0.90;99.90;;;;;;5054908;28;20140;-59
2023/03/01 00:53:56;;;;;;;108.03;45.33;;;0.90;99.90;;;;;;5054235;28;20060;-60
2023/03/01 00:56:22;;;;;;;82.60;35.17;;;0.90;99.90;;;;;;5054253;28;20021;-60
2023/03/01 00:58:48;;;;;;;96.88;53.38;;;0.90;99.90;;;;;;5054188;28;20025;-60
2023/03/01 01:01:17;;;;;;;89.88;51.50;;;1.00;99.90;;;;;;5054408;28;20123;-60
2023/03/01 01:03:53;;;;;;;51.30;34.90;;;0.90;99.90;;;;;;5054392;28;20017;-59
2023/03/01 01:06:42;;;;;;;51.40;24.67;;;0.90;99.90;;;;;;5054781;28;20028;-60
2023/03/01 01:09:09;;;;;;;42.80;22.30;;;1.00;99.90;;;;;;5054646;28;20029;-60
2023/03/01 01:11:38;;;;;;;30.40;16.55;;;1.10;99.90;;;;;;5054372;28;20052;-60
2023/03/01 01:14:04;;;;;;;19.63;12.98;;;1.00;99.90;;;;;;5053523;28;20045;-59
2023/03/01 01:16:30;;;;;;;46.83;25.65;;;1.10;99.90;;;;;;5054087;28;20115;-60
2023/03/01 01:18:56;;;;;;;21.88;14.93;;;1.10;99.90;;;;;;5054122;28;20512;-59
2023/03/01 01:21:23;;;;;;;32.28;20.65;;;1.10;99.90;;;;;;5054141;28;20037;-60
2023/03/01 01:23:50;;;;;;;50.33;29.55;;;1.00;99.90;;;;;;5054186;28;20053;-60
2023/03/01 01:26:30;;;;;;;28.38;18.50;;;1.20;99.90;;;;;;5054377;28;20494;-60
2023/03/01 01:28:56;;;;;;;25.42;17.50;;;1.10;99.90;;;;;;5053523;28;20063;-59
2023/03/01 01:31:25;;;;;;;24.85;15.30;;;1.20;99.90;;;;;;5053881;28;20550;-60
2023/03/01 01:33:52;;;;;;;48.60;30.42;;;1.10;99.90;;;;;;5054057;28;20025;-59
2023/03/01 01:36:18;;;;;;;31.48;19.83;;;1.10;99.90;;;;;;5053870;28;20016;-60
2023/03/01 01:38:44;;;;;;;24.92;19.08;;;1.20;99.90;;;;;;5054146;28;20025;-60
2023/03/01 01:41:11;;;;;;;28.42;18.67;;;1.20;99.90;;;;;;5053867;28;20042;-59
2023/03/01 01:44:08;;;;;;;28.80;18.25;;;1.20;99.90;;;;;;5053306;28;20056;-59
2023/03/01 01:46:37;;;;;;;26.90;17.35;;;1.20;99.90;;;;;;5053538;28;20079;-59
2023/03/01 01:49:16;;;;;;;28.75;18.50;;;1.20;99.90;;;;;;5053399;28;20434;-59
2023/03/01 01:51:45;;;;;;;30.65;20.70;;;1.10;99.90;;;;;;5053852;28;20029;-59
2023/03/01 01:54:44;;;;;;;28.85;20.73;;;1.20;99.90;;;;;;5053347;28;20056;-59
2023/03/01 01:57:15;;;;;;;31.58;21.88;;;1.10;99.90;;;;;;5052714;28;20474;-59
2023/03/01 01:59:45;;;;;;;24.20;19.25;;;1.10;99.90;;;;;;5053264;28;20032;-59
2023/03/01 02:02:12;;;;;;;24.23;19.60;;;1.10;99.90;;;;;;5053279;28;20040;-59
2023/03/01 02:04:38;;;;;;;23.40;19.58;;;1.00;99.90;;;;;;5053272;28;20031;-59
2023/03/01 02:07:14;;;;;;;29.70;23.92;;;1.10;99.90;;;;;;5052515;28;20021;-60
2023/03/01 02:09:43;;;;;;;23.38;19.92;;;1.10;99.90;;;;;;5053196;28;20032;-60
2023/03/01 02:12:09;;;;;;;19.70;15.25;;;1.10;99.90;;;;;;5052705;28;20021;-60
2023/03/01 02:14:35;;;;;;;23.35;15.02;;;1.20;99.90;;;;;;5053019;28;20123;-60
2023/03/01 02:17:01;;;;;;;20.13;13.23;;;1.00;99.90;;;;;;5052966;28;20028;-60
2023/03/01 02:20:16;;;;;;;17.83;12.20;;;1.00;99.90;;;;;;5053110;28;20119;-59
2023/03/01 02:22:44;;;;;;;18.27;12.32;;;1.00;99.90;;;;;;5050653;28;20045;-60
2023/03/01 02:25:18;;;;;;;18.08;14.18;;;0.80;99.90;;;;;;5053024;28;20051;-59
2023/03/01 02:28:10;;;;;;;17.00;13.68;;;0.80;99.90;;;;;;5052540;28;20470;-59
2023/03/01 02:30:36;;;;;;;18.13;12.63;;;0.80;99.90;;;;;;5052860;28;20078;-59
2023/03/01 02:33:04;;;;;;;19.70;12.77;;;0.60;99.90;;;;;;5053023;28;20028;-60
2023/03/01 02:35:32;;;;;;;19.73;12.93;;;0.60;99.90;;;;;;5052583;28;20045;-59
2023/03/01 02:38:00;;;;;;;18.98;13.00;;;0.60;99.90;;;;;;5053015;28;20033;-59
2023/03/01 02:40:31;;;;;;;19.10;13.48;;;0.50;99.90;;;;;;5052325;28;20473;-60
2023/03/01 02:42:58;;;;;;;20.45;12.90;;;0.60;99.90;;;;;;5052381;28;20440;-60
2023/03/01 02:45:25;;;;;;;21.00;13.73;;;0.50;99.90;;;;;;5052611;28;20029;-60
2023/03/01 02:47:55;;;;;;;17.52;14.23;;;0.50;99.90;;;;;;5052379;28;20041;-60
2023/03/01 02:50:53;;;;;;;22.38;17.20;;;0.60;99.90;;;;;;5052480;28;20044;-60
2023/03/01 02:53:21;;;;;;;43.35;22.80;;;0.50;99.90;;;;;;5052523;28;20041;-60
2023/03/01 02:55:48;;;;;;;266.33;98.57;;;0.50;99.90;;;;;;5051977;28;20091;-60
2023/03/01 02:58:14;;;;;;;131.77;53.63;;;0.40;99.90;;;;;;5052259;28;20017;-60
2023/03/01 03:00:46;;;;;;;151.18;62.28;;;0.40;99.90;;;;;;5052342;28;20028;-60
2023/03/01 03:03:20;;;;;;;144.93;59.90;;;0.40;99.90;;;;;;5052716;28;20032;-60
2023/03/01 03:05:47;;;;;;;152.70;63.08;;;0.40;99.90;;;;;;5052136;28;20032;-60
2023/03/01 03:08:14;;;;;;;134.00;55.30;;;0.40;99.90;;;;;;5051993;28;20039;-60
2023/03/01 03:10:42;;;;;;;67.13;34.15;;;0.30;99.90;;;;;;5052167;28;20082;-60
2023/03/01 03:13:11;;;;;;;59.67;30.70;;;0.30;99.90;;;;;;5051969;28;20044;-60
2023/03/01 03:15:38;;;;;;;50.83;28.17;;;0.40;99.90;;;;;;5052079;28;20028;-59
2023/03/01 03:18:06;;;;;;;138.27;65.05;;;0.40;99.90;;;;;;5051607;28;20032;-60
2023/03/01 03:20:33;;;;;;;141.52;67.72;;;0.50;99.90;;;;;;5052219;28;20025;-60
2023/03/01 03:22:59;;;;;;;149.98;69.90;;;0.30;99.90;;;;;;5052360;28;20104;-60
2023/03/01 03:25:26;;;;;;;55.55;29.10;;;0.30;99.90;;;;;;5051641;28;20124;-60
2023/03/01 03:27:58;;;;;;;44.97;24.40;;;0.30;99.90;;;;;;5051841;28;20141;-59
2023/03/01 03:30:29;;;;;;;29.65;17.88;;;0.40;99.90;;;;;;5051967;28;20024;-60
2023/03/01 03:32:55;;;;;;;19.77;13.15;;;0.40;99.90;;;;;;5052539;28;20485;-59
2023/03/01 03:35:31;;;;;;;19.85;12.35;;;0.40;99.90;;;;;;5051909;28;20482;-59
2023/03/01 03:38:01;;;;;;;20.17;12.05;;;0.40;99.90;;;;;;5051498;28;20083;-59
2023/03/01 03:40:29;;;;;;;16.25;11.05;;;0.30;99.90;;;;;;5052339;28;20047;-59
2023/03/01 03:42:54;;;;;;;14.32;9.48;;;0.30;99.90;;;;;;5051716;28;20017;-59
2023/03/01 03:45:21;;;;;;;12.50;9.25;;;0.40;99.90;;;;;;5051837;28;20051;-59
2023/03/01 03:47:46;;;;;;;15.30;10.48;;;0.40;99.90;;;;;;5052055;28;20032;-59
2023/03/01 03:50:14;;;;;;;17.90;10.55;;;0.40;99.90;;;;;;5051783;28;20045;-59
2023/03/01 03:52:40;;;;;;;17.45;10.63;;;0.40;99.90;;;;;;5051286;28;20017;-59
2023/03/01 03:55:10;;;;;;;15.13;9.95;;;0.30;99.90;;;;;;5051562;28;20095;-59
2023/03/01 03:57:40;;;;;;;17.23;10.88;;;0.40;99.90;;;;;;5051702;28;20386;-59
2023/03/01 04:00:12;;;;;;;23.73;14.27;;;0.30;99.90;;;;;;5052059;28;20112;-59
2023/03/01 04:02:40;;;;;;;77.05;34.03;;;0.30;99.90;;;;;;5052020;28;20052;-59
2023/03/01 04:05:06;;;;;;;109.40;46.95;;;0.40;99.90;;;;;;5051615;28;20025;-59
2023/03/01 04:07:34;;;;;;;26.55;14.65;;;0.30;99.90;;;;;;5051154;28;20095;-59
2023/03/01 04:09:59;;;;;;;12.95;8.30;;;0.30;99.90;;;;;;5051537;28;20028;-59
2023/03/01 04:12:25;;;;;;;11.50;8.02;;;0.30;99.90;;;;;;5051442;28;20067;-59
2023/03/01 04:14:51;;;;;;;10.40;7.07;;;0.30;99.90;;;;;;5051666;28;20599;-59
2023/03/01 04:17:16;;;;;;;7.53;6.63;;;0.30;99.90;;;;;;5051432;28;20106;-59
2023/03/01 04:19:43;;;;;;;7.40;6.15;;;0.40;99.90;;;;;;5051513;28;20029;-59
2023/03/01 04:22:11;;;;;;;7.32;5.95;;;0.40;99.90;;;;;;5051161;28;20052;-59
2023/03/01 04:24:36;;;;;;;7.65;5.80;;;0.30;99.90;;;;;;5051800;28;20029;-59
2023/03/01 04:27:02;;;;;;;9.02;6.60;;;0.10;99.90;;;;;;5051592;28;20313;-59
2023/03/01 04:29:28;;;;;;;9.88;6.93;;;0.10;99.90;;;;;;5051834;28;20375;-59
2023/03/01 04:31:54;;;;;;;12.07;8.70;;;0.10;99.90;;;;;;5055099;28;20032;-59
2023/03/01 04:34:19;;;;;;;14.02;10.18;;;0.00;99.90;;;;;;5055446;28;20083;-60
2023/03/01 04:36:45;;;;;;;12.93;9.40;;;-0.10;99.90;;;;;;5054581;28;20031;-59
2023/03/01 04:39:14;;;;;;;13.98;10.18;;;-0.10;99.90;;;;;;5054865;28;20028;-60
2023/03/01 04:41:40;;;;;;;12.93;7.88;;;-0.10;99.90;;;;;;5055049;28;20101;-59
2023/03/01 04:44:08;;;;;;;9.85;6.95;;;-0.10;99.90;;;;;;5054437;28;20039;-59
2023/03/01 04:46:35;;;;;;;10.73;7.97;;;-0.10;99.90;;;;;;5055113;28;20107;-59
2023/03/01 04:49:01;;;;;;;10.50;7.53;;;-0.20;99.90;;;;;;5054652;28;20108;-59
2023/03/01 04:51:27;;;;;;;12.27;8.18;;;-0.20;99.90;;;;;;5054336;28;20032;-59
2023/03/01 04:53:52;;;;;;;11.95;8.27;;;-0.40;99.90;;;;;;5054564;28;20482;-59
2023/03/01 04:56:18;;;;;;;14.88;10.57;;;-0.50;99.90;;;;;;5054727;28;20036;-59
2023/03/01 04:58:44;;;;;;;23.20;13.93;;;-0.50;99.90;;;;;;5054724;28;20079;-59
2023/03/01 05:01:16;;;;;;;30.63;19.85;;;-0.60;99.90;;;;;;5054681;28;20029;-59
2023/03/01 05:03:48;;;;;;;40.50;23.17;;;-0.50;99.90;;;;;;5054334;28;20044;-59
2023/03/01 05:06:14;;;;;;;32.25;22.00;;;-0.60;99.90;;;;;;5054335;28;20039;-59
2023/03/01 05:08:41;;;;;;;35.33;23.73;;;-0.50;99.90;;;;;;5054122;28;20048;-59
2023/03/01 05:11:08;;;;;;;41.03;28.80;;;-0.60;99.90;;;;;;5054457;28;20024;-59
2023/03/01 05:13:35;;;;;;;62.47;44.33;;;-0.60;99.90;;;;;;5054357;28;20136;-59
2023/03/01 05:16:03;;;;;;;101.93;66.68;;;-0.60;99.90;;;;;;5054111;28;20062;-60
2023/03/01 05:18:31;;;;;;;91.28;58.15;;;-0.70;99.90;;;;;;5054177;28;20041;-59
2023/03/01 05:21:06;;;;;;;221.70;135.25;;;-0.80;99.90;;;;;;5053672;28;20469;-59
2023/03/01 05:23:33;;;;;;;41.00;27.73;;;-0.80;99.90;;;;;;5054374;28;20058;-60
2023/03/01 05:26:00;;;;;;;20.95;12.73;;;-0.80;99.90;;;;;;5054047;28;20490;-59
2023/03/01 05:28:28;;;;;;;13.32;7.88;;;-0.90;99.90;;;;;;5053973;28;20056;-60
2023/03/01 05:30:54;;;;;;;17.17;13.07;;;-0.90;99.90;;;;;;5053864;28;20017;-60
2023/03/01 05:33:21;;;;;;;16.80;10.77;;;-0.90;99.90;;;;;;5053227;28;20430;-59
2023/03/01 05:35:48;;;;;;;19.27;12.52;;;-1.00;99.90;;;;;;5053577;28;20476;-59
2023/03/01 05:38:15;;;;;;;14.45;10.48;;;-1.10;99.90;;;;;;5053679;28;20025;-59
2023/03/01 05:40:43;;;;;;;15.40;12.32;;;-1.20;99.90;;;;;;5053420;28;20506;-59
2023/03/01 05:43:09;;;;;;;15.95;12.48;;;-1.10;99.90;;;;;;5053693;28;20029;-59
2023/03/01 05:45:37;;;;;;;22.70;17.10;;;-1.20;99.90;;;;;;5053643;28;20036;-59
2023/03/01 05:48:03;;;;;;;48.38;29.50;;;-1.30;99.90;;;;;;5053331;28;20564;-59
2023/03/01 05:50:31;;;;;;;75.78;45.65;;;-1.40;99.90;;;;;;5053659;28;20032;-59
2023/03/01 05:53:05;;;;;;;140.65;83.00;;;-1.40;99.90;;;;;;5053374;28;20025;-59
2023/03/01 05:55:31;;;;;;;;;;;-1.50;99.90;;;;;;5053816;28;20079;-59
2023/03/01 05:58:01;;;;;;;122.93;76.30;;;-1.60;99.90;;;;;;5053409;28;19905;-59
2023/03/01 06:00:28;;;;;;;49.17;34.92;;;-1.70;99.90;;;;;;5052492;28;20099;-59
2023/03/01 06:02:55;;;;;;;45.15;33.78;;;-1.70;99.90;;;;;;5052995;28;20021;-59
2023/03/01 06:05:21;;;;;;;27.73;20.92;;;-1.80;99.90;;;;;;5053205;28;20036;-59
2023/03/01 06:07:48;;;;;;;41.42;29.65;;;-1.80;99.90;;;;;;5053117;28;20021;-59
2023/03/01 06:10:14;;;;;;;112.88;70.00;;;-1.80;99.90;;;;;;5053554;28;20032;-59
2023/03/01 06:12:41;;;;;;;55.83;37.63;;;-1.80;99.90;;;;;;5052933;28;20410;-59
2023/03/01 06:15:09;;;;;;;37.17;27.83;;;-2.00;99.90;;;;;;5053075;28;20517;-59
2023/03/01 06:17:37;;;;;;;19.60;17.25;;;-2.00;99.90;;;;;;5052660;28;20501;-59
2023/03/01 06:20:09;;;;;;;17.23;14.05;;;-2.00;99.90;;;;;;5052970;28;20025;-59
2023/03/01 06:22:35;;;;;;;25.90;19.60;;;-2.00;99.90;;;;;;5053670;28;20017;-59
2023/03/01 06:25:01;;;;;;;21.63;15.48;;;-2.00;99.90;;;;;;5052785;28;20041;-60
2023/03/01 06:27:27;;;;;;;18.35;14.32;;;-2.10;99.90;;;;;;5052804;28;20017;-59
2023/03/01 06:29:53;;;;;;;26.42;18.75;;;-2.10;99.90;;;;;;5051554;28;20060;-59
2023/03/01 06:32:18;;;;;;;29.63;21.23;;;-2.10;99.90;;;;;;5052421;28;20029;-59
2023/03/01 06:34:44;;;;;;;63.25;47.63;;;-2.10;99.90;;;;;;5052543;28;20490;-59
2023/03/01 06:37:10;;;;;;;37.90;29.02;;;-2.10;99.90;;;;;;5052760;28;20021;-59
2023/03/01 06:39:36;;;;;;;26.48;21.73;;;-2.10;99.90;;;;;;5052624;28;20036;-59
2023/03/01 06:42:02;;;;;;;23.42;17.05;;;-2.10;99.90;;;;;;5052503;28;20075;-59
2023/03/01 06:44:28;;;;;;;20.88;17.75;;;-2.10;99.90;;;;;;5052807;28;20478;-59
2023/03/01 06:46:54;;;;;;;23.27;18.33;;;-2.10;99.90;;;;;;5052060;28;20053;-59
2023/03/01 06:49:20;;;;;;;14.00;11.20;;;-2.20;99.90;;;;;;5052138;28;20036;-59
2023/03/01 06:51:46;;;;;;;18.88;13.50;;;-2.30;99.90;;;;;;5052267;28;20028;-59
2023/03/01 06:54:13;;;;;;;14.45;11.13;;;-2.20;99.90;;;;;;5051811;28;20033;-59
2023/03/01 06:56:39;;;;;;;12.95;10.48;;;-2.10;99.90;;;;;;5052739;28;20028;-59
2023/03/01 06:59:04;;;;;;;13.43;10.35;;;-2.10;99.90;;;;;;5052521;28;20072;-59
2023/03/01 07:01:30;;;;;;;13.48;10.75;;;-1.90;99.90;;;;;;5052441;28;20438;-59
2023/03/01 07:03:57;;;;;;;17.88;14.30;;;-1.70;99.90;;;;;;5052252;28;20100;-59
2023/03/01 07:06:23;;;;;;;21.15;12.80;;;-1.70;99.90;;;;;;5052178;28;20082;-60
2023/03/01 07:08:49;;;;;;;18.42;14.02;;;-1.60;99.90;;;;;;5052122;28;20047;-59
2023/03/01 07:11:15;;;;;;;16.65;13.82;;;-1.40;99.90;;;;;;5052110;28;20033;-59
2023/03/01 07:13:41;;;;;;;20.20;15.27;;;-1.20;99.90;;;;;;5051996;28;20048;-59
2023/03/01 07:16:07;;;;;;;35.17;26.33;;;0.10;99.90;;;;;;5051839;28;20032;-59
2023/03/01 07:18:32;;;;;;;18.50;15.27;;;1.50;99.90;;;;;;5051977;28;20032;-59
2023/03/01 07:20:58;;;;;;;16.35;12.27;;;2.60;99.90;;;;;;5052023;28;20511;-60
2023/03/01 07:23:24;;;;;;;12.93;10.40;;;2.90;99.90;;;;;;5052027;28;20079;-59
2023/03/01 07:25:53;;;;;;;23.52;17.73;;;2.00;99.90;;;;;;5052074;28;20074;-61
2023/03/01 07:28:19;;;;;;;17.35;12.80;;;0.60;99.90;;;;;;5052017;28;20039;-59
2023/03/01 07:30:45;;;;;;;27.42;19.48;;;1.30;99.90;;;;;;5051879;28;20103;-59
2023/03/01 07:33:10;;;;;;;18.30;14.82;;;2.00;99.90;;;;;;5051963;28;20056;-59
2023/03/01 07:35:36;;;;;;;18.50;14.88;;;0.90;99.90;;;;;;5051788;28;20086;-59
2023/03/01 07:38:02;;;;;;;23.52;19.08;;;3.20;99.90;;;;;;5051748;28;20032;-59
2023/03/01 07:40:27;;;;;;;23.00;16.42;;;4.00;99.90;;;;;;5051937;28;20036;-59
2023/03/01 07:42:57;;;;;;;16.60;12.48;;;5.50;99.90;;;;;;5051654;28;20393;-60
2023/03/01 07:45:24;;;;;;;13.50;11.07;;;6.60;99.90;;;;;;5051587;28;20029;-60
2023/03/01 07:47:51;;;;;;;13.10;10.38;;;9.30;99.90;;;;;;5051797;28;20036;-59
2023/03/01 07:50:18;;;;;;;11.05;9.70;;;10.50;99.90;;;;;;5051737;28;20037;-60
2023/03/01 07:52:46;;;;;;;11.52;10.32;;;10.80;99.90;;;;;;5051723;28;20497;-60
2023/03/01 07:55:12;;;;;;;13.30;10.38;;;10.70;99.90;;;;;;5051717;28;20044;-59
2023/03/01 07:57:38;;;;;;;11.52;9.73;;;8.80;99.90;;;;;;5051774;28;20021;-59
2023/03/01 08:00:05;;;;;;;10.43;9.10;;;10.30;99.90;;;;;;5051236;28;20025;-59
2023/03/01 08:02:31;;;;;;;13.75;11.35;;;11.40;99.90;;;;;;5052021;28;20094;-59
2023/03/01 08:04:56;;;;;;;12.88;10.98;;;12.50;99.90;;;;;;5054525;28;20501;-59
2023/03/01 08:07:22;;;;;;;11.30;10.10;;;12.90;99.90;;;;;;5055285;28;20115;-59
2023/03/01 08:09:48;;;;;;;9.85;8.85;;;12.10;99.90;;;;;;5055462;28;20032;-60
2023/03/01 08:12:16;;;;;;;8.85;8.05;;;10.80;99.90;;;;;;5055064;28;20469;-59
2023/03/01 08:14:41;;;;;;;8.93;8.02;;;13.10;99.90;;;;;;5054908;28;20032;-60
2023/03/01 08:17:07;;;;;;;9.77;8.77;;;13.60;99.90;;;;;;5055427;28;20528;-60
2023/03/01 08:19:34;;;;;;;9.07;8.18;;;14.20;99.90;;;;;;5054973;28;20032;-60
2023/03/01 08:22:03;;;;;;;9.27;8.40;;;14.10;99.90;;;;;;5055582;28;20029;-60
2023/03/01 08:24:29;;;;;;;9.25;8.30;;;13.60;99.90;;;;;;5055151;28;20555;-60
2023/03/01 08:26:55;;;;;;;8.80;7.93;;;14.60;99.70;;;;;;5055273;28;20029;-60
2023/03/01 08:29:21;;;;;;;9.25;8.35;;;17.10;97.40;;;;;;5054803;28;20116;-60
2023/03/01 08:31:48;;;;;;;11.60;9.55;;;14.10;97.70;;;;;;5054789;28;20497;-60
2023/03/01 08:34:17;;;;;;;11.75;10.55;;;14.60;97.70;;;;;;5055489;28;20482;-60
2023/03/01 08:36:45;;;;;;;12.02;10.63;;;15.10;95.40;;;;;;5054966;28;20032;-60
2023/03/01 08:39:13;;;;;;;10.77;9.65;;;16.70;95.90;;;;;;5055044;28;20027;-60
2023/03/01 08:41:39;;;;;;;9.63;8.57;;;16.60;95.20;;;;;;5054828;28;20082;-60
2023/03/01 08:44:05;;;;;;;10.18;9.18;;;12.10;95.80;;;;;;5054288;28;20115;-60
2023/03/01 08:46:40;;;;;;;9.88;8.98;;;13.50;96.30;;;;;;5055177;28;20037;-60
2023/03/01 08:49:17;;;;;;;11.13;9.80;;;11.70;97.30;;;;;;5054590;28;20032;-61
2023/03/01 08:51:44;;;;;;;10.50;9.13;;;12.00;97.80;;;;;;5054737;28;20082;-60
2023/03/01 08:54:15;;;;;;;10.20;7.93;;;15.90;96.00;;;;;;5054280;28;20044;-58
2023/03/01 08:56:41;;;;;;;10.63;9.18;;;17.40;95.40;;;;;;5054328;28;20452;-60
2023/03/01 08:59:08;;;;;;;9.40;8.50;;;15.40;94.70;;;;;;5054917;28;20021;-58
2023/03/01 09:01:34;;;;;;;15.77;10.73;;;15.80;93.00;;;;;;5054503;28;20021;-60
2023/03/01 09:04:00;;;;;;;14.43;12.10;;;14.10;94.90;;;;;;5054544;28;20048;-59
2023/03/01 09:06:26;;;;;;;12.15;9.00;;;18.90;92.80;;;;;;5054119;28;20024;-59
2023/03/01 09:08:52;;;;;;;8.57;7.75;;;18.00;91.30;;;;;;5054423;28;20182;-59
2023/03/01 09:11:19;;;;;;;8.82;7.53;;;17.10;90.50;;;;;;5054376;28;20515;-60
2023/03/01 09:13:47;;;;;;;10.95;9.65;;;18.70;90.50;;;;;;5053932;28;20056;-60
2023/03/01 09:16:15;;;;;;;10.18;9.20;;;20.70;87.00;;;;;;5053506;28;20028;-60
2023/03/01 09:18:41;;;;;;;13.15;10.93;;;18.20;86.70;;;;;;5053967;28;20029;-61
2023/03/01 09:21:13;;;;;;;10.57;9.23;;;17.40;86.60;;;;;;5054194;28;20021;-60
2023/03/01 09:23:41;;;;;;;9.25;8.45;;;16.50;87.60;;;;;;5053990;28;20481;-60
2023/03/01 09:26:16;;;;;;;9.10;8.30;;;15.50;89.50;;;;;;5053968;28;20025;-61
2023/03/01 09:28:44;;;;;;;7.93;7.13;;;21.00;85.70;;;;;;5053652;28;20044;-59
2023/03/01 09:31:12;;;;;;;8.57;7.78;;;18.90;86.00;;;;;;5053720;28;20059;-59
2023/03/01 09:33:38;;;;;;;7.93;7.22;;;16.70;86.00;;;;;;5053947;28;20035;-60
2023/03/01 09:36:06;;;;;;;7.35;6.47;;;19.10;82.50;;;;;;5053406;28;20047;-61
2023/03/01 09:38:33;;;;;;;7.88;7.10;;;16.40;81.30;;;;;;5052729;28;20025;-60
2023/03/01 09:40:59;;;;;;;9.68;7.10;;;16.60;84.20;;;;;;5052561;28;20082;-58
2023/03/01 09:43:47;;;;;;;8.38;7.10;;;18.10;86.60;;;;;;5052203;28;20427;-66
2023/03/01 09:46:17;;;;;;;8.00;7.20;;;17.30;80.40;;;;;;5053453;28;20033;-63
2023/03/01 09:48:48;;;;;;;7.88;7.18;;;15.00;83.40;;;;;;5053381;28;20040;-60
2023/03/01 09:51:19;;;;;;;7.85;6.95;;;14.80;84.90;;;;;;5053485;28;20025;-60
2023/03/01 09:53:45;;;;;;;7.97;7.28;;;15.70;84.50;;;;;;5053515;28;20071;-60
2023/03/01 09:56:40;;;;;;;7.93;7.15;;;15.10;84.60;;;;;;5053232;28;20057;-61
2023/03/01 09:59:18;;;;;;;9.20;7.78;;;16.50;81.70;;;;;;5053384;28;20521;-60
2023/03/01 10:02:01;;;;;;;9.38;8.48;;;15.30;83.70;;;;;;5053293;28;20037;-61
2023/03/01 10:04:49;;;;;;;11.90;10.05;;;18.40;83.20;;;;;;5053339;28;20032;-60
2023/03/01 10:07:32;;;;;;;6.75;6.13;;;17.40;74.80;;;;;;5053312;28;20409;-60
2023/03/01 10:10:00;;;;;;;10.37;9.37;;;13.00;78.30;;;;;;5052958;28;20503;-60
2023/03/01 10:12:32;;;;;;;7.20;6.50;;;12.50;84.50;;;;;;5052752;28;20393;-61
2023/03/01 10:15:27;;;;;;;6.68;6.07;;;12.50;80.30;;;;;;5053066;28;20578;-60
2023/03/01 10:17:57;;;;;;;7.95;6.30;;;12.00;81.70;;;;;;5049087;28;20040;-60
2023/03/01 10:20:45;;;;;;;16.40;15.00;;;9.90;84.60;;;;;;5052987;28;20504;-60
2023/03/01 10:23:11;;;;;;;7.93;6.85;;;12.00;88.50;;;;;;5030717;28;20038;-60
2023/03/01 10:25:42;;;;;;;6.90;6.25;;;13.10;84.50;;;;;;5030859;28;20037;-61
2023/03/01 10:28:40;;;;;;;7.30;6.60;;;11.10;82.00;;;;;;5029697;28;20486;-61
2023/03/01 10:31:13;;;;;;;8.57;6.50;;;13.50;85.10;;;;;;4933755;29;20042;-60
2023/03/01 10:33:42;;;;;;;7.10;6.10;;;15.00;82.90;;;;;;4933453;29;20521;-61
2023/03/01 10:36:08;;;;;;;10.75;6.93;;;14.70;82.00;;;;;;4933279;29;20054;-62
2023/03/01 10:38:57;;;;;;;6.93;6.22;;;12.60;82.10;;;;;;4933111;29;20024;-61
2023/03/01 10:41:25;;;;;;;6.10;5.50;;;11.80;81.90;;;;;;4933163;29;20167;-63
2023/03/01 10:43:57;;;;;;;6.68;5.97;;;12.70;81.60;;;;;;4933154;29;20031;-63
2023/03/01 10:46:30;;;;;;;6.53;5.93;;;12.80;81.30;;;;;;4932886;29;20067;-63
2023/03/01 10:49:07;;;;;;;6.80;6.20;;;11.80;83.40;;;;;;4932233;29;20122;-63
2023/03/01 10:51:33;;;;;;;6.63;6.03;;;12.30;80.90;;;;;;4933189;29;20038;-63
2023/03/01 10:53:59;;;;;;;7.35;6.30;;;13.00;80.20;;;;;;4933042;29;20044;-63
2023/03/01 10:56:27;;;;;;;7.05;6.10;;;13.20;81.00;;;;;;4932932;29;20031;-63
2023/03/01 10:59:01;;;;;;;7.57;6.78;;;12.90;81.00;;;;;;4932966;29;20131;-62
2023/03/01 11:01:34;;;;;;;6.65;6.05;;;13.60;81.30;;;;;;4952170;28;20035;-61
2023/03/01 11:04:18;;;;;;;6.68;6.07;;;12.40;81.60;;;;;;4952697;29;20031;-63
2023/03/01 11:06:57;;;;;;;6.47;5.78;;;10.90;82.90;;;;;;4956716;28;20086;-63
2023/03/01 11:09:27;;;;;;;11.93;8.30;;;9.40;83.70;;;;;;5031893;28;20045;-63
2023/03/01 11:11:57;;;;;;;6.22;5.70;;;11.80;85.20;;;;;;5031920;28;20021;-63
2023/03/01 11:14:29;;;;;;;6.85;5.57;;;11.40;81.60;;;;;;5031772;28;20049;-63
2023/03/01 11:17:11;;;;;;;6.97;6.03;;;10.80;84.70;;;;;;5031943;28;20049;-64
2023/03/01 11:19:37;;;;;;;6.50;5.72;;;11.70;83.40;;;;;;5032080;28;20105;-63
2023/03/01 11:22:11;;;;;;;6.40;5.82;;;12.50;83.10;;;;;;5031957;28;20113;-63
2023/03/01 11:24:53;;;;;;;7.25;6.03;;;12.60;83.20;;;;;;5032359;28;20075;-63
2023/03/01 11:27:24;;;;;;;6.82;5.90;;;12.20;82.70;;;;;;5030954;28;20036;-62
2023/03/01 11:30:15;;;;;;;6.57;5.85;;;13.20;83.70;;;;;;5032058;28;20125;-63
2023/03/01 11:32:51;;;;;;;6.65;6.00;;;13.10;81.70;;;;;;5032031;28;20029;-63
2023/03/01 11:35:27;;;;;;;10.15;9.18;;;12.80;85.80;;;;;;5032023;28;20050;-63
2023/03/01 11:38:01;;;;;;;7.47;6.78;;;12.80;82.90;;;;;;5031719;28;20087;-63
2023/03/01 11:40:43;;;;;;;7.65;6.85;;;13.10;84.40;;;;;;5035866;28;20028;-62
2023/03/01 11:43:45;;;;;;;47.85;43.53;;;14.30;83.60;;;;;;5041862;28;20107;-62
2023/03/01 11:46:30;;;;;;;10.45;9.40;;;14.20;83.40;;;;;;5056161;28;20071;-63
2023/03/01 11:49:04;;;;;;;10.40;9.10;;;14.90;84.10;;;;;;5055597;28;20048;-62
2023/03/01 11:51:52;;;;;;;6.75;5.80;;;13.60;84.50;;;;;;5055645;28;20053;-62
2023/03/01 11:54:42;;;;;;;6.57;5.97;;;12.30;82.30;;;;;;5055481;28;20036;-62
2023/03/01 11:57:29;;;;;;;6.90;6.20;;;10.00;86.20;;;;;;5055847;28;20029;-63
2023/03/01 12:00:21;;;;;;;7.57;6.40;;;11.10;85.40;;;;;;5056061;28;20555;-62
2023/03/01 12:02:50;;;;;;;10.48;9.48;;;11.30;83.50;;;;;;5056086;28;20040;-62
2023/03/01 12:06:03;;;;;;;7.13;6.38;;;12.10;85.70;;;;;;5055293;28;20021;-62
2023/03/01 12:08:55;;;;;;;8.85;6.75;;;10.70;87.10;;;;;;5033233;28;20040;-62
2023/03/01 12:11:22;;;;;;;7.53;6.82;;;12.20;88.80;;;;;;5033432;28;20068;-62
2023/03/01 12:14:24;;;;;;;8.48;7.43;;;9.90;88.90;;;;;;5033074;28;20057;-63
2023/03/01 12:17:02;;;;;;;6.90;6.20;;;10.50;88.20;;;;;;5016944;28;20037;-63
2023/03/01 12:19:39;;;;;;;8.10;7.40;;;11.50;90.70;;;;;;5033177;28;20112;-62
2023/03/01 12:22:38;;;;;;;7.00;6.40;;;10.10;88.40;;;;;;5032927;28;20069;-62
2023/03/01 12:25:47;;;;;;;10.52;7.72;;;10.60;88.20;;;;;;5033184;28;20502;-62
2023/03/01 12:28:12;;;;;;;9.75;6.93;;;11.20;91.70;;;;;;5024511;28;20041;-62
2023/03/01 12:30:49;;;;;;;12.05;7.65;;;11.10;90.70;;;;;;5032951;28;20037;-63
2023/03/01 12:33:31;;;;;;;8.00;7.28;;;12.00;91.30;;;;;;5016366;28;20087;-62
2023/03/01 12:36:15;;;;;;;7.53;6.82;;;11.10;89.60;;;;;;5033004;28;20087;-62
2023/03/01 12:38:54;;;;;;;8.20;7.50;;;10.40;90.40;;;;;;5032838;28;20088;-62
2023/03/01 12:41:43;;;;;;;8.48;7.63;;;10.00;89.90;;;;;;5034860;28;20038;-62
2023/03/01 12:44:48;;;;;;;12.15;8.20;;;10.70;88.50;;;;;;5054925;28;20056;-62
2023/03/01 12:47:30;;;;;;;8.82;7.80;;;10.20;89.90;;;;;;5055276;28;20078;-62
2023/03/01 12:50:04;;;;;;;8.38;7.60;;;10.50;90.50;;;;;;5053577;28;20043;-62
2023/03/01 12:52:42;;;;;;;7.60;6.88;;;11.20;89.90;;;;;;5054676;28;20109;-62
2023/03/01 12:55:37;;;;;;;9.27;7.93;;;10.50;90.10;;;;;;5054505;28;20055;-62